sensor_id;sensor_type;location;lat;lon;timestamp;temperature;humidity
26621;DHT22;14253;44.840;10.444;2023-11-21T00:01:37;10.20;99.90
26621;DHT22;14253;44.840;10.444;2023-11-21T00:04:03;10.20;99.90
26621;DHT22;14253;44.840;10.444;2023-11-21T00:06:29;10.20;99.90
26621;DHT22;14253;44.840;10.444;2023-11-21T00:08:56;10.20;99.90
26621;DHT22;14253;44.840;10.444;2023-11-21T00:11:22;10.10;99.90
26621;DHT22;14253;44.840;10.444;2023-11-21T00:13:48;10.10;99.90
26621;DHT22;14253;44.840;10.444;2023-11-21T00:16:14;10.00;99.90
26621;DHT22;14253;44.840;10.444;2023-11-21T00:18:40;10.00;99.90
26621;DHT22;14253;44.840;10.444;2023-11-21T00:21:06;10.00;99.90
26621;DHT22;14253;44.840;10.444;2023-11-21T00:23:32;10.00;99.90
26621;DHT22;14253;44.840;10.444;2023-11-21T00:25:58;10.00;99.90
26621;DHT22;14253;44.840;10.444;2023-11-21T00:28:26;10.00;99.90
26621;DHT22;14253;44.840;10.444;2023-11-21T00:30:52;9.90;99.90
26621;DHT22;14253;44.840;10.444;2023-11-21T00:33:18;9.90;99.90
26621;DHT22;14253;44.840;10.444;2023-11-21T00:35:45;9.90;99.90
26621;DHT22;14253;44.840;10.444;2023-11-21T00:38:11;9.90;99.90
26621;DHT22;14253;44.840;10.444;2023-11-21T00:40:37;9.80;99.90
26621;DHT22;14253;44.840;10.444;2023-11-21T00:43:03;9.80;99.90
26621;DHT22;14253;44.840;10.444;2023-11-21T00:45:29;9.70;99.90
26621;DHT22;14253;44.840;10.444;2023-11-21T00:47:55;9.70;99.90
26621;DHT22;14253;44.840;10.444;2023-11-21T00:50:22;9.70;99.90
26621;DHT22;14253;44.840;10.444;2023-11-21T00:52:47;9.70;99.90
26621;DHT22;14253;44.840;10.444;2023-11-21T00:55:13;9.70;99.90
26621;DHT22;14253;44.840;10.444;2023-11-21T00:57:40;9.80;99.90
26621;DHT22;14253;44.840;10.444;2023-11-21T01:00:06;9.80;99.90
26621;DHT22;14253;44.840;10.444;2023-11-21T01:02:35;9.80;99.90
26621;DHT22;14253;44.840;10.444;2023-11-21T01:05:01;9.80;99.90
26621;DHT22;14253;44.840;10.444;2023-11-21T01:07:27;9.80;99.90
26621;DHT22;14253;44.840;10.444;2023-11-21T01:09:53;9.90;99.90
26621;DHT22;14253;44.840;10.444;2023-11-21T01:12:19;9.90;99.90
26621;DHT22;14253;44.840;10.444;2023-11-21T01:14:45;9.90;99.90
26621;DHT22;14253;44.840;10.444;2023-11-21T01:17:11;9.90;99.90
26621;DHT22;14253;44.840;10.444;2023-11-21T01:19:37;9.90;99.90
26621;DHT22;14253;44.840;10.444;2023-11-21T01:22:03;9.90;99.90
26621;DHT22;14253;44.840;10.444;2023-11-21T01:24:29;9.90;99.90
26621;DHT22;14253;44.840;10.444;2023-11-21T01:26:55;9.90;99.90
26621;DHT22;14253;44.840;10.444;2023-11-21T01:29:21;9.90;99.90
26621;DHT22;14253;44.840;10.444;2023-11-21T01:31:47;9.90;99.90
26621;DHT22;14253;44.840;10.444;2023-11-21T01:34:13;9.90;99.90
26621;DHT22;14253;44.840;10.444;2023-11-21T01:36:40;9.90;99.90
26621;DHT22;14253;44.840;10.444;2023-11-21T01:39:05;9.90;99.90
26621;DHT22;14253;44.840;10.444;2023-11-21T01:41:34;10.00;99.90
26621;DHT22;14253;44.840;10.444;2023-11-21T01:44:01;10.00;99.90
26621;DHT22;14253;44.840;10.444;2023-11-21T01:46:28;9.90;99.90
26621;DHT22;14253;44.840;10.444;2023-11-21T01:48:55;10.00;99.90
26621;DHT22;14253;44.840;10.444;2023-11-21T01:51:21;10.00;99.90
26621;DHT22;14253;44.840;10.444;2023-11-21T01:53:47;10.00;99.90
26621;DHT22;14253;44.840;10.444;2023-11-21T01:56:13;10.00;99.90
26621;DHT22;14253;44.840;10.444;2023-11-21T01:58:40;10.00;99.90
26621;DHT22;14253;44.840;10.444;2023-11-21T02:01:07;10.00;99.90
26621;DHT22;14253;44.840;10.444;2023-11-21T02:03:33;10.00;99.90
26621;DHT22;14253;44.840;10.444;2023-11-21T02:05:59;10.00;99.90
26621;DHT22;14253;44.840;10.444;2023-11-21T02:08:25;10.00;99.90
26621;DHT22;14253;44.840;10.444;2023-11-21T02:10:52;10.00;99.90
26621;DHT22;14253;44.840;10.444;2023-11-21T02:13:18;10.00;99.90
26621;DHT22;14253;44.840;10.444;2023-11-21T02:15:44;10.00;99.90
26621;DHT22;14253;44.840;10.444;2023-11-21T02:18:10;10.00;99.90
26621;DHT22;14253;44.840;10.444;2023-11-21T02:20:37;10.00;99.90
26621;DHT22;14253;44.840;10.444;2023-11-21T02:23:04;10.00;99.90
26621;DHT22;14253;44.840;10.444;2023-11-21T02:25:32;10.10;99.90
26621;DHT22;14253;44.840;10.444;2023-11-21T02:28:00;10.00;99.90
26621;DHT22;14253;44.840;10.444;2023-11-21T02:30:27;10.00;99.90
26621;DHT22;14253;44.840;10.444;2023-11-21T02:32:59;10.00;99.90
26621;DHT22;14253;44.840;10.444;2023-11-21T02:35:25;10.00;99.90
26621;DHT22;14253;44.840;10.444;2023-11-21T02:37:54;10.00;99.90
26621;DHT22;14253;44.840;10.444;2023-11-21T02:40:20;10.00;99.90
26621;DHT22;14253;44.840;10.444;2023-11-21T02:42:47;10.00;99.90
26621;DHT22;14253;44.840;10.444;2023-11-21T02:45:17;10.00;99.90
26621;DHT22;14253;44.840;10.444;2023-11-21T02:47:44;10.00;99.90
26621;DHT22;14253;44.840;10.444;2023-11-21T02:50:10;10.00;99.90
26621;DHT22;14253;44.840;10.444;2023-11-21T02:52:37;10.00;99.90
26621;DHT22;14253;44.840;10.444;2023-11-21T02:55:04;10.00;99.90
26621;DHT22;14253;44.840;10.444;2023-11-21T02:57:30;10.00;99.90
26621;DHT22;14253;44.840;10.444;2023-11-21T02:59:56;10.00;99.90
26621;DHT22;14253;44.840;10.444;2023-11-21T03:02:22;10.00;99.90
26621;DHT22;14253;44.840;10.444;2023-11-21T03:04:48;10.00;99.90
26621;DHT22;14253;44.840;10.444;2023-11-21T03:07:15;10.00;99.90
26621;DHT22;14253;44.840;10.444;2023-11-21T03:09:41;10.00;99.90
26621;DHT22;14253;44.840;10.444;2023-11-21T03:12:08;10.00;99.90
26621;DHT22;14253;44.840;10.444;2023-11-21T03:14:34;10.00;99.90
26621;DHT22;14253;44.840;10.444;2023-11-21T03:17:00;10.00;99.90
26621;DHT22;14253;44.840;10.444;2023-11-21T03:19:27;10.00;99.90
26621;DHT22;14253;44.840;10.444;2023-11-21T03:21:54;10.00;99.90
26621;DHT22;14253;44.840;10.444;2023-11-21T03:24:20;10.00;99.90
26621;DHT22;14253;44.840;10.444;2023-11-21T03:26:46;10.00;99.90
26621;DHT22;14253;44.840;10.444;2023-11-21T03:29:15;10.00;99.90
26621;DHT22;14253;44.840;10.444;2023-11-21T03:31:42;10.00;99.90
26621;DHT22;14253;44.840;10.444;2023-11-21T03:34:14;10.00;99.90
26621;DHT22;14253;44.840;10.444;2023-11-21T03:36:40;10.00;99.90
26621;DHT22;14253;44.840;10.444;2023-11-21T03:39:06;10.00;99.90
26621;DHT22;14253;44.840;10.444;2023-11-21T03:41:32;9.90;99.90
26621;DHT22;14253;44.840;10.444;2023-11-21T03:43:59;9.90;99.90
26621;DHT22;14253;44.840;10.444;2023-11-21T03:46:25;9.90;99.90
26621;DHT22;14253;44.840;10.444;2023-11-21T03:48:51;9.90;99.90
26621;DHT22;14253;44.840;10.444;2023-11-21T03:51:17;9.90;99.90
26621;DHT22;14253;44.840;10.444;2023-11-21T03:53:43;9.80;99.90
26621;DHT22;14253;44.840;10.444;2023-11-21T03:56:10;9.80;99.90
26621;DHT22;14253;44.840;10.444;2023-11-21T03:58:35;9.80;99.90
26621;DHT22;14253;44.840;10.444;2023-11-21T04:01:01;9.90;99.90
26621;DHT22;14253;44.840;10.444;2023-11-21T04:03:27;9.90;99.90
26621;DHT22;14253;44.840;10.444;2023-11-21T04:05:53;9.80;99.90
26621;DHT22;14253;44.840;10.444;2023-11-21T04:08:19;9.80;99.90
26621;DHT22;14253;44.840;10.444;2023-11-21T04:10:45;9.90;99.90
26621;DHT22;14253;44.840;10.444;2023-11-21T04:13:11;9.90;99.90
26621;DHT22;14253;44.840;10.444;2023-11-21T04:15:37;9.80;99.90
26621;DHT22;14253;44.840;10.444;2023-11-21T04:18:03;9.80;99.90
26621;DHT22;14253;44.840;10.444;2023-11-21T04:20:29;9.80;99.90
26621;DHT22;14253;44.840;10.444;2023-11-21T04:22:55;9.80;99.90
26621;DHT22;14253;44.840;10.444;2023-11-21T04:25:21;9.80;99.90
26621;DHT22;14253;44.840;10.444;2023-11-21T04:27:48;9.80;99.90
26621;DHT22;14253;44.840;10.444;2023-11-21T04:30:15;9.80;99.90
26621;DHT22;14253;44.840;10.444;2023-11-21T04:32:41;9.80;99.90
26621;DHT22;14253;44.840;10.444;2023-11-21T04:35:10;9.80;99.90
26621;DHT22;14253;44.840;10.444;2023-11-21T04:37:36;9.80;99.90
26621;DHT22;14253;44.840;10.444;2023-11-21T04:40:03;9.80;99.90
26621;DHT22;14253;44.840;10.444;2023-11-21T04:42:35;9.80;99.90
26621;DHT22;14253;44.840;10.444;2023-11-21T04:45:02;9.80;99.90
26621;DHT22;14253;44.840;10.444;2023-11-21T04:47:33;9.80;99.90
26621;DHT22;14253;44.840;10.444;2023-11-21T04:49:59;9.80;99.90
26621;DHT22;14253;44.840;10.444;2023-11-21T04:52:24;9.80;99.90
26621;DHT22;14253;44.840;10.444;2023-11-21T04:54:51;9.80;99.90
26621;DHT22;14253;44.840;10.444;2023-11-21T04:57:17;9.80;99.90
26621;DHT22;14253;44.840;10.444;2023-11-21T04:59:44;9.80;99.90
26621;DHT22;14253;44.840;10.444;2023-11-21T05:02:10;9.80;99.90
26621;DHT22;14253;44.840;10.444;2023-11-21T05:04:36;9.80;99.90
26621;DHT22;14253;44.840;10.444;2023-11-21T05:07:02;9.80;99.90
26621;DHT22;14253;44.840;10.444;2023-11-21T05:09:28;9.80;99.90
26621;DHT22;14253;44.840;10.444;2023-11-21T05:11:58;9.80;99.90
26621;DHT22;14253;44.840;10.444;2023-11-21T05:14:24;9.80;99.90
26621;DHT22;14253;44.840;10.444;2023-11-21T05:16:50;9.80;99.90
26621;DHT22;14253;44.840;10.444;2023-11-21T05:19:16;9.80;99.90
26621;DHT22;14253;44.840;10.444;2023-11-21T05:21:42;9.80;99.90
26621;DHT22;14253;44.840;10.444;2023-11-21T05:24:08;9.80;99.90
26621;DHT22;14253;44.840;10.444;2023-11-21T05:26:35;9.80;99.90
26621;DHT22;14253;44.840;10.444;2023-11-21T05:29:01;9.80;99.90
26621;DHT22;14253;44.840;10.444;2023-11-21T05:31:27;9.80;99.90
26621;DHT22;14253;44.840;10.444;2023-11-21T05:33:53;9.80;99.90
26621;DHT22;14253;44.840;10.444;2023-11-21T05:36:19;9.80;99.90
26621;DHT22;14253;44.840;10.444;2023-11-21T05:38:44;9.80;99.90
26621;DHT22;14253;44.840;10.444;2023-11-21T05:41:11;9.80;99.90
26621;DHT22;14253;44.840;10.444;2023-11-21T05:43:39;9.80;99.90
26621;DHT22;14253;44.840;10.444;2023-11-21T05:46:06;9.80;99.90
26621;DHT22;14253;44.840;10.444;2023-11-21T05:48:33;9.80;99.90
26621;DHT22;14253;44.840;10.444;2023-11-21T05:50:58;9.80;99.90
26621;DHT22;14253;44.840;10.444;2023-11-21T05:53:25;9.80;99.90
26621;DHT22;14253;44.840;10.444;2023-11-21T05:55:51;9.80;99.90
26621;DHT22;14253;44.840;10.444;2023-11-21T05:58:17;9.70;99.90
26621;DHT22;14253;44.840;10.444;2023-11-21T06:00:43;9.70;99.90
26621;DHT22;14253;44.840;10.444;2023-11-21T06:03:09;9.70;99.90
26621;DHT22;14253;44.840;10.444;2023-11-21T06:05:35;9.70;99.90
26621;DHT22;14253;44.840;10.444;2023-11-21T06:08:01;9.80;99.90
26621;DHT22;14253;44.840;10.444;2023-11-21T06:10:27;9.80;99.90
26621;DHT22;14253;44.840;10.444;2023-11-21T06:12:54;9.80;99.90
26621;DHT22;14253;44.840;10.444;2023-11-21T06:15:20;9.80;99.90
26621;DHT22;14253;44.840;10.444;2023-11-21T06:17:48;9.80;99.90
26621;DHT22;14253;44.840;10.444;2023-11-21T06:20:18;9.80;99.90
26621;DHT22;14253;44.840;10.444;2023-11-21T06:22:47;9.80;99.90
26621;DHT22;14253;44.840;10.444;2023-11-21T06:25:14;9.80;99.90
26621;DHT22;14253;44.840;10.444;2023-11-21T06:27:45;9.70;99.90
26621;DHT22;14253;44.840;10.444;2023-11-21T06:30:12;9.70;99.90
26621;DHT22;14253;44.840;10.444;2023-11-21T06:32:39;9.80;99.90
26621;DHT22;14253;44.840;10.444;2023-11-21T06:35:07;9.80;99.90
26621;DHT22;14253;44.840;10.444;2023-11-21T06:37:33;9.80;99.90
26621;DHT22;14253;44.840;10.444;2023-11-21T06:40:01;9.80;99.90
26621;DHT22;14253;44.840;10.444;2023-11-21T06:42:29;9.70;99.90
26621;DHT22;14253;44.840;10.444;2023-11-21T06:44:55;9.80;99.90
26621;DHT22;14253;44.840;10.444;2023-11-21T06:47:25;9.80;99.90
26621;DHT22;14253;44.840;10.444;2023-11-21T06:49:52;9.80;99.90
26621;DHT22;14253;44.840;10.444;2023-11-21T06:52:18;9.80;99.90
26621;DHT22;14253;44.840;10.444;2023-11-21T06:54:44;9.90;99.90
26621;DHT22;14253;44.840;10.444;2023-11-21T06:57:11;9.80;99.90
26621;DHT22;14253;44.840;10.444;2023-11-21T06:59:37;9.80;99.90
26621;DHT22;14253;44.840;10.444;2023-11-21T07:02:03;9.80;99.90
26621;DHT22;14253;44.840;10.444;2023-11-21T07:04:33;9.80;99.90
26621;DHT22;14253;44.840;10.444;2023-11-21T07:06:59;9.80;99.90
26621;DHT22;14253;44.840;10.444;2023-11-21T07:09:25;9.80;99.90
26621;DHT22;14253;44.840;10.444;2023-11-21T07:11:55;9.90;99.90
26621;DHT22;14253;44.840;10.444;2023-11-21T07:14:21;9.80;99.90
26621;DHT22;14253;44.840;10.444;2023-11-21T07:16:47;9.80;99.90
26621;DHT22;14253;44.840;10.444;2023-11-21T07:19:14;9.80;99.90
26621;DHT22;14253;44.840;10.444;2023-11-21T07:21:40;9.80;99.90
26621;DHT22;14253;44.840;10.444;2023-11-21T07:24:07;9.80;99.90
26621;DHT22;14253;44.840;10.444;2023-11-21T07:26:34;9.80;99.90
26621;DHT22;14253;44.840;10.444;2023-11-21T07:29:01;9.90;99.90
26621;DHT22;14253;44.840;10.444;2023-11-21T07:31:29;9.80;99.90
26621;DHT22;14253;44.840;10.444;2023-11-21T07:33:55;9.90;99.90
26621;DHT22;14253;44.840;10.444;2023-11-21T07:36:24;9.90;99.90
26621;DHT22;14253;44.840;10.444;2023-11-21T07:38:51;10.00;99.90
26621;DHT22;14253;44.840;10.444;2023-11-21T07:41:17;10.00;99.90
26621;DHT22;14253;44.840;10.444;2023-11-21T07:43:46;10.10;99.90
26621;DHT22;14253;44.840;10.444;2023-11-21T07:46:13;10.00;99.90
26621;DHT22;14253;44.840;10.444;2023-11-21T07:48:40;10.10;99.90
26621;DHT22;14253;44.840;10.444;2023-11-21T07:51:07;10.10;99.90
26621;DHT22;14253;44.840;10.444;2023-11-21T07:53:34;10.00;99.90
26621;DHT22;14253;44.840;10.444;2023-11-21T07:56:07;10.10;99.90
26621;DHT22;14253;44.840;10.444;2023-11-21T07:58:34;10.10;99.90
26621;DHT22;14253;44.840;10.444;2023-11-21T08:01:01;10.10;99.90
26621;DHT22;14253;44.840;10.444;2023-11-21T08:03:27;10.10;99.90
26621;DHT22;14253;44.840;10.444;2023-11-21T08:05:56;10.00;99.90
26621;DHT22;14253;44.840;10.444;2023-11-21T08:08:23;10.00;99.90
26621;DHT22;14253;44.840;10.444;2023-11-21T08:10:50;10.00;99.90
26621;DHT22;14253;44.840;10.444;2023-11-21T08:13:26;10.00;99.90
26621;DHT22;14253;44.840;10.444;2023-11-21T08:15:55;10.00;99.90
26621;DHT22;14253;44.840;10.444;2023-11-21T08:18:29;10.10;99.90
26621;DHT22;14253;44.840;10.444;2023-11-21T08:20:55;10.10;99.90
26621;DHT22;14253;44.840;10.444;2023-11-21T08:23:22;10.20;99.90
26621;DHT22;14253;44.840;10.444;2023-11-21T08:25:51;10.20;99.90
26621;DHT22;14253;44.840;10.444;2023-11-21T08:28:17;10.30;99.90
26621;DHT22;14253;44.840;10.444;2023-11-21T08:30:43;10.20;99.90
26621;DHT22;14253;44.840;10.444;2023-11-21T08:33:10;10.30;99.90
26621;DHT22;14253;44.840;10.444;2023-11-21T08:35:37;10.30;99.90
26621;DHT22;14253;44.840;10.444;2023-11-21T08:38:03;10.30;99.90
26621;DHT22;14253;44.840;10.444;2023-11-21T08:40:30;10.30;99.90
26621;DHT22;14253;44.840;10.444;2023-11-21T08:42:56;10.30;99.90
26621;DHT22;14253;44.840;10.444;2023-11-21T08:45:24;10.30;99.90
26621;DHT22;14253;44.840;10.444;2023-11-21T08:47:51;10.30;99.90
26621;DHT22;14253;44.840;10.444;2023-11-21T08:50:17;10.30;99.90
26621;DHT22;14253;44.840;10.444;2023-11-21T08:52:44;10.30;99.90
26621;DHT22;14253;44.840;10.444;2023-11-21T08:55:11;10.30;99.90
26621;DHT22;14253;44.840;10.444;2023-11-21T08:57:40;10.20;99.90
26621;DHT22;14253;44.840;10.444;2023-11-21T09:00:09;10.20;99.90
26621;DHT22;14253;44.840;10.444;2023-11-21T09:02:40;10.20;99.90
26621;DHT22;14253;44.840;10.444;2023-11-21T09:05:12;10.20;99.90
26621;DHT22;14253;44.840;10.444;2023-11-21T09:07:40;10.20;99.90
26621;DHT22;14253;44.840;10.444;2023-11-21T09:10:07;10.20;99.90
26621;DHT22;14253;44.840;10.444;2023-11-21T09:12:37;10.30;99.90
26621;DHT22;14253;44.840;10.444;2023-11-21T09:15:07;10.30;99.90
26621;DHT22;14253;44.840;10.444;2023-11-21T09:17:35;10.30;99.90
26621;DHT22;14253;44.840;10.444;2023-11-21T09:20:02;10.30;99.90
26621;DHT22;14253;44.840;10.444;2023-11-21T09:22:31;10.30;99.90
26621;DHT22;14253;44.840;10.444;2023-11-21T09:24:57;10.40;99.90
26621;DHT22;14253;44.840;10.444;2023-11-21T09:27:24;10.40;99.90
26621;DHT22;14253;44.840;10.444;2023-11-21T09:29:51;10.30;99.90
26621;DHT22;14253;44.840;10.444;2023-11-21T09:32:18;10.30;99.90
26621;DHT22;14253;44.840;10.444;2023-11-21T09:34:44;10.30;99.90
26621;DHT22;14253;44.840;10.444;2023-11-21T09:37:10;10.30;99.90
26621;DHT22;14253;44.840;10.444;2023-11-21T09:39:36;10.30;99.90
26621;DHT22;14253;44.840;10.444;2023-11-21T09:42:25;10.20;99.90
26621;DHT22;14253;44.840;10.444;2023-11-21T09:45:21;10.20;99.90
26621;DHT22;14253;44.840;10.444;2023-11-21T09:47:55;10.20;99.90
26621;DHT22;14253;44.840;10.444;2023-11-21T09:50:24;10.20;99.90
26621;DHT22;14253;44.840;10.444;2023-11-21T09:53:20;10.20;99.90
26621;DHT22;14253;44.840;10.444;2023-11-21T09:55:52;10.20;99.90
26621;DHT22;14253;44.840;10.444;2023-11-21T09:58:19;10.20;99.90
26621;DHT22;14253;44.840;10.444;2023-11-21T10:00:50;10.20;99.90
26621;DHT22;14253;44.840;10.444;2023-11-21T10:03:18;10.20;99.90
26621;DHT22;14253;44.840;10.444;2023-11-21T10:05:45;10.30;99.90
26621;DHT22;14253;44.840;10.444;2023-11-21T10:08:12;10.30;99.90
26621;DHT22;14253;44.840;10.444;2023-11-21T10:10:43;10.30;99.90
26621;DHT22;14253;44.840;10.444;2023-11-21T10:13:14;10.40;99.90
26621;DHT22;14253;44.840;10.444;2023-11-21T10:15:42;10.40;99.90
26621;DHT22;14253;44.840;10.444;2023-11-21T10:18:14;10.50;99.90
26621;DHT22;14253;44.840;10.444;2023-11-21T10:20:41;10.70;99.90
26621;DHT22;14253;44.840;10.444;2023-11-21T10:23:07;10.80;99.90
26621;DHT22;14253;44.840;10.444;2023-11-21T10:25:37;10.90;99.90
26621;DHT22;14253;44.840;10.444;2023-11-21T10:28:04;10.90;99.90
26621;DHT22;14253;44.840;10.444;2023-11-21T10:30:37;10.90;99.90
26621;DHT22;14253;44.840;10.444;2023-11-21T10:33:07;10.90;99.90
26621;DHT22;14253;44.840;10.444;2023-11-21T10:35:42;10.90;99.90
26621;DHT22;14253;44.840;10.444;2023-11-21T10:38:13;11.00;99.90
26621;DHT22;14253;44.840;10.444;2023-11-21T10:40:42;11.00;99.90
26621;DHT22;14253;44.840;10.444;2023-11-21T10:43:10;11.00;99.90
26621;DHT22;14253;44.840;10.444;2023-11-21T10:45:37;11.00;99.90
26621;DHT22;14253;44.840;10.444;2023-11-21T10:48:07;10.90;99.90
26621;DHT22;14253;44.840;10.444;2023-11-21T10:50:34;10.90;99.90
26621;DHT22;14253;44.840;10.444;2023-11-21T10:53:02;10.90;99.90
26621;DHT22;14253;44.840;10.444;2023-11-21T10:55:30;10.90;99.90
26621;DHT22;14253;44.840;10.444;2023-11-21T10:57:59;11.00;99.90
26621;DHT22;14253;44.840;10.444;2023-11-21T11:00:28;11.00;99.90
26621;DHT22;14253;44.840;10.444;2023-11-21T11:02:56;10.90;99.90
26621;DHT22;14253;44.840;10.444;2023-11-21T11:05:23;10.90;99.90
26621;DHT22;14253;44.840;10.444;2023-11-21T11:07:52;10.90;99.90
26621;DHT22;14253;44.840;10.444;2023-11-21T11:10:26;10.90;99.90
26621;DHT22;14253;44.840;10.444;2023-11-21T11:12:54;11.00;99.90
26621;DHT22;14253;44.840;10.444;2023-11-21T11:15:22;11.10;99.90
26621;DHT22;14253;44.840;10.444;2023-11-21T11:17:49;11.20;99.90
26621;DHT22;14253;44.840;10.444;2023-11-21T11:20:16;11.20;99.90
26621;DHT22;14253;44.840;10.444;2023-11-21T11:28:55;11.20;99.90
26621;DHT22;14253;44.840;10.444;2023-11-21T11:31:27;11.20;99.90
26621;DHT22;14253;44.840;10.444;2023-11-21T11:37:00;11.30;99.90
26621;DHT22;14253;44.840;10.444;2023-11-21T11:39:35;11.40;99.90
26621;DHT22;14253;44.840;10.444;2023-11-21T11:42:03;11.40;99.90
26621;DHT22;14253;44.840;10.444;2023-11-21T11:47:15;11.50;99.90
26621;DHT22;14253;44.840;10.444;2023-11-21T11:50:05;11.50;99.90
26621;DHT22;14253;44.840;10.444;2023-11-21T11:52:46;11.60;99.90
26621;DHT22;14253;44.840;10.444;2023-11-21T11:55:14;11.60;99.90
26621;DHT22;14253;44.840;10.444;2023-11-21T11:57:45;11.80;99.90
26621;DHT22;14253;44.840;10.444;2023-11-21T12:02:58;11.90;99.90
26621;DHT22;14253;44.840;10.444;2023-11-21T12:05:26;12.10;99.90
26621;DHT22;14253;44.840;10.444;2023-11-21T12:07:56;12.30;99.90
26621;DHT22;14253;44.840;10.444;2023-11-21T12:10:30;12.30;99.90
26621;DHT22;14253;44.840;10.444;2023-11-21T12:13:05;12.30;99.90
26621;DHT22;14253;44.840;10.444;2023-11-21T12:15:34;12.30;99.90
26621;DHT22;14253;44.840;10.444;2023-11-21T12:18:00;12.30;99.90
26621;DHT22;14253;44.840;10.444;2023-11-21T12:20:27;12.30;99.90
26621;DHT22;14253;44.840;10.444;2023-11-21T12:22:55;12.30;99.90
26621;DHT22;14253;44.840;10.444;2023-11-21T12:25:29;12.30;99.90
26621;DHT22;14253;44.840;10.444;2023-11-21T12:27:58;12.30;99.90
26621;DHT22;14253;44.840;10.444;2023-11-21T12:30:29;12.30;99.90
26621;DHT22;14253;44.840;10.444;2023-11-21T12:33:02;12.30;99.90
26621;DHT22;14253;44.840;10.444;2023-11-21T12:35:31;12.20;99.90
26621;DHT22;14253;44.840;10.444;2023-11-21T12:38:00;12.20;99.90
26621;DHT22;14253;44.840;10.444;2023-11-21T12:40:28;12.30;99.90
26621;DHT22;14253;44.840;10.444;2023-11-21T12:42:56;12.30;99.90
26621;DHT22;14253;44.840;10.444;2023-11-21T12:45:26;12.30;99.90
26621;DHT22;14253;44.840;10.444;2023-11-21T12:47:57;12.40;99.90
26621;DHT22;14253;44.840;10.444;2023-11-21T12:50:27;12.30;99.90
26621;DHT22;14253;44.840;10.444;2023-11-21T12:53:07;12.30;99.90
26621;DHT22;14253;44.840;10.444;2023-11-21T12:55:43;12.30;99.90
26621;DHT22;14253;44.840;10.444;2023-11-21T12:58:15;12.40;99.90
26621;DHT22;14253;44.840;10.444;2023-11-21T13:00:48;12.40;99.90
26621;DHT22;14253;44.840;10.444;2023-11-21T13:03:16;12.40;99.90
26621;DHT22;14253;44.840;10.444;2023-11-21T13:05:45;12.40;99.90
26621;DHT22;14253;44.840;10.444;2023-11-21T13:08:12;12.40;99.90
26621;DHT22;14253;44.840;10.444;2023-11-21T13:10:40;12.40;99.90
26621;DHT22;14253;44.840;10.444;2023-11-21T13:13:10;12.40;99.90
26621;DHT22;14253;44.840;10.444;2023-11-21T13:15:40;12.40;99.90
26621;DHT22;14253;44.840;10.444;2023-11-21T13:18:09;12.30;99.90
26621;DHT22;14253;44.840;10.444;2023-11-21T13:20:37;12.40;99.90
26621;DHT22;14253;44.840;10.444;2023-11-21T13:23:08;12.40;99.90
26621;DHT22;14253;44.840;10.444;2023-11-21T13:25:34;12.40;99.90
26621;DHT22;14253;44.840;10.444;2023-11-21T13:28:02;12.40;99.90
26621;DHT22;14253;44.840;10.444;2023-11-21T13:30:28;12.30;99.90
26621;DHT22;14253;44.840;10.444;2023-11-21T13:33:04;12.30;99.90
26621;DHT22;14253;44.840;10.444;2023-11-21T13:35:35;12.30;99.90
26621;DHT22;14253;44.840;10.444;2023-11-21T13:38:12;12.30;99.90
26621;DHT22;14253;44.840;10.444;2023-11-21T13:40:40;12.30;99.90
26621;DHT22;14253;44.840;10.444;2023-11-21T13:43:13;12.30;99.90
26621;DHT22;14253;44.840;10.444;2023-11-21T13:45:43;12.30;99.90
26621;DHT22;14253;44.840;10.444;2023-11-21T13:48:10;12.30;99.90
26621;DHT22;14253;44.840;10.444;2023-11-21T13:50:48;12.20;99.90
26621;DHT22;14253;44.840;10.444;2023-11-21T13:53:21;12.30;99.90
26621;DHT22;14253;44.840;10.444;2023-11-21T13:55:54;12.20;99.90
26621;DHT22;14253;44.840;10.444;2023-11-21T13:58:21;12.20;99.90
26621;DHT22;14253;44.840;10.444;2023-11-21T14:01:26;12.20;99.90
26621;DHT22;14253;44.840;10.444;2023-11-21T14:03:59;12.10;99.90
26621;DHT22;14253;44.840;10.444;2023-11-21T14:06:47;12.10;99.90
26621;DHT22;14253;44.840;10.444;2023-11-21T14:09:19;12.00;99.90
26621;DHT22;14253;44.840;10.444;2023-11-21T14:12:08;12.00;99.90
26621;DHT22;14253;44.840;10.444;2023-11-21T14:14:34;11.90;99.90
26621;DHT22;14253;44.840;10.444;2023-11-21T14:17:00;11.90;99.90
26621;DHT22;14253;44.840;10.444;2023-11-21T14:19:33;11.80;99.90
26621;DHT22;14253;44.840;10.444;2023-11-21T14:22:02;11.80;99.90
26621;DHT22;14253;44.840;10.444;2023-11-21T14:24:28;11.80;99.90
26621;DHT22;14253;44.840;10.444;2023-11-21T14:26:55;11.70;99.90
26621;DHT22;14253;44.840;10.444;2023-11-21T14:29:21;11.70;99.90
26621;DHT22;14253;44.840;10.444;2023-11-21T14:31:49;11.70;99.90
26621;DHT22;14253;44.840;10.444;2023-11-21T14:34:17;11.60;99.90
26621;DHT22;14253;44.840;10.444;2023-11-21T14:36:44;11.60;99.90
26621;DHT22;14253;44.840;10.444;2023-11-21T14:39:10;11.50;99.90
26621;DHT22;14253;44.840;10.444;2023-11-21T14:41:52;11.50;99.90
26621;DHT22;14253;44.840;10.444;2023-11-21T14:44:18;11.50;99.90
26621;DHT22;14253;44.840;10.444;2023-11-21T14:46:45;11.50;99.90
26621;DHT22;14253;44.840;10.444;2023-11-21T14:49:13;11.50;99.90
26621;DHT22;14253;44.840;10.444;2023-11-21T14:51:46;11.40;99.90
26621;DHT22;14253;44.840;10.444;2023-11-21T14:54:18;11.40;99.90
26621;DHT22;14253;44.840;10.444;2023-11-21T14:56:57;11.40;99.90
26621;DHT22;14253;44.840;10.444;2023-11-21T14:59:22;11.40;99.90
26621;DHT22;14253;44.840;10.444;2023-11-21T15:01:48;11.30;99.90
26621;DHT22;14253;44.840;10.444;2023-11-21T15:04:21;11.40;99.90
26621;DHT22;14253;44.840;10.444;2023-11-21T15:07:02;11.30;99.90
26621;DHT22;14253;44.840;10.444;2023-11-21T15:09:29;11.30;99.90
26621;DHT22;14253;44.840;10.444;2023-11-21T15:11:59;11.30;99.90
26621;DHT22;14253;44.840;10.444;2023-11-21T15:14:47;11.30;99.90
26621;DHT22;14253;44.840;10.444;2023-11-21T15:17:17;11.20;99.90
26621;DHT22;14253;44.840;10.444;2023-11-21T15:19:53;11.20;99.90
26621;DHT22;14253;44.840;10.444;2023-11-21T15:22:19;11.20;99.90
26621;DHT22;14253;44.840;10.444;2023-11-21T15:24:45;11.30;99.90
26621;DHT22;14253;44.840;10.444;2023-11-21T15:27:16;11.30;99.90
26621;DHT22;14253;44.840;10.444;2023-11-21T15:29:43;11.30;99.90
26621;DHT22;14253;44.840;10.444;2023-11-21T15:32:09;11.30;99.90
26621;DHT22;14253;44.840;10.444;2023-11-21T15:34:36;11.30;99.90
26621;DHT22;14253;44.840;10.444;2023-11-21T15:37:03;11.20;99.90
26621;DHT22;14253;44.840;10.444;2023-11-21T15:39:30;11.20;99.90
26621;DHT22;14253;44.840;10.444;2023-11-21T15:41:57;11.10;99.90